createdAt,value
2022-07-31T00:00:16.970Z,66.90
2022-07-31T00:02:44.635Z,65.60
2022-07-31T00:05:11.665Z,65.90
2022-07-31T00:07:38.723Z,66.30
2022-07-31T00:10:06.719Z,66.00
2022-07-31T00:12:37.239Z,66.40
2022-07-31T00:15:06.507Z,67.50
2022-07-31T00:17:34.099Z,67.30
2022-07-31T00:20:01.014Z,68.00
2022-07-31T00:22:27.927Z,67.80
2022-07-31T00:24:54.794Z,67.40
2022-07-31T00:27:23.555Z,68.20
2022-07-31T00:29:51.028Z,67.30
2022-07-31T00:32:17.971Z,66.10
2022-07-31T00:34:44.839Z,66.20
2022-07-31T00:37:11.780Z,67.10
2022-07-31T00:39:38.674Z,67.40
2022-07-31T00:42:06.167Z,68.30
2022-07-31T00:44:33.031Z,68.40
2022-07-31T00:47:00.443Z,68.30
2022-07-31T00:49:28.360Z,68.00
2022-07-31T00:52:05.182Z,68.20
2022-07-31T00:54:32.634Z,68.50
2022-07-31T00:56:59.708Z,69.00
2022-07-31T00:59:28.927Z,69.00
2022-07-31T01:01:56.747Z,68.80
2022-07-31T01:04:24.319Z,68.40
2022-07-31T01:06:55.097Z,68.40
2022-07-31T01:09:22.243Z,69.10
2022-07-31T01:12:18.799Z,68.50
2022-07-31T01:14:59.939Z,68.80
2022-07-31T01:17:30.484Z,69.80
2022-07-31T01:19:57.727Z,70.00
2022-07-31T01:22:56.188Z,70.50
2022-07-31T01:25:28.858Z,70.50
2022-07-31T01:28:09.818Z,70.30
2022-07-31T01:31:05.010Z,70.70
2022-07-31T01:34:05.963Z,70.70
2022-07-31T01:36:36.696Z,70.70
2022-07-31T01:39:04.916Z,70.70
2022-07-31T01:41:38.165Z,70.60
2022-07-31T01:44:07.196Z,71.00
2022-07-31T01:46:41.514Z,70.70
2022-07-31T01:49:12.871Z,71.30
2022-07-31T01:51:43.200Z,71.10
2022-07-31T01:54:11.720Z,70.40
2022-07-31T01:56:40.260Z,70.60
2022-07-31T01:59:18.709Z,72.00
2022-07-31T02:02:10.010Z,72.60
2022-07-31T02:04:38.116Z,73.00
2022-07-31T02:07:08.158Z,72.40
2022-07-31T02:09:37.695Z,71.20
2022-07-31T02:12:33.745Z,68.40
2022-07-31T02:15:06.360Z,70.00
2022-07-31T02:17:35.035Z,71.60
2022-07-31T02:20:33.076Z,68.80
2022-07-31T02:23:01.494Z,72.00
2022-07-31T02:25:29.899Z,71.40
2022-07-31T02:27:59.336Z,70.90
2022-07-31T02:30:38.342Z,70.30
2022-07-31T02:33:19.075Z,70.20
2022-07-31T02:35:50.124Z,67.10
2022-07-31T02:38:23.133Z,67.60
2022-07-31T02:40:55.148Z,68.10
2022-07-31T02:43:22.723Z,70.00
2022-07-31T02:45:50.216Z,71.10
2022-07-31T02:48:17.597Z,72.20
2022-07-31T02:50:48.837Z,71.20
2022-07-31T02:53:16.247Z,72.00
2022-07-31T02:55:47.069Z,72.70
2022-07-31T02:58:14.445Z,73.30
2022-07-31T03:00:41.588Z,72.70
2022-07-31T03:03:10.025Z,71.60
2022-07-31T03:05:37.000Z,70.80
2022-07-31T03:08:04.528Z,70.00
2022-07-31T03:10:34.519Z,72.30
2022-07-31T03:13:06.647Z,73.40
2022-07-31T03:15:35.140Z,73.60
2022-07-31T03:18:11.119Z,73.70
2022-07-31T03:20:43.167Z,73.50
2022-07-31T03:23:12.990Z,74.20
2022-07-31T03:25:51.451Z,73.20
2022-07-31T03:28:21.904Z,73.10
2022-07-31T03:30:55.051Z,73.60
2022-07-31T03:33:24.450Z,73.30
2022-07-31T03:35:53.215Z,73.60
2022-07-31T03:38:39.454Z,73.90
2022-07-31T03:41:08.195Z,74.40
2022-07-31T03:43:44.006Z,73.80
2022-07-31T03:46:22.070Z,74.50
2022-07-31T03:48:52.530Z,74.20
2022-07-31T03:51:20.899Z,74.30
2022-07-31T03:53:48.732Z,73.20
2022-07-31T03:56:45.281Z,71.90
2022-07-31T03:59:15.909Z,74.70
2022-07-31T04:01:57.477Z,73.70
2022-07-31T04:04:37.903Z,73.00
2022-07-31T04:07:05.984Z,72.30
2022-07-31T04:09:33.098Z,73.30
2022-07-31T04:12:00.672Z,72.00
2022-07-31T04:14:27.792Z,71.70
2022-07-31T04:16:54.648Z,72.40
2022-07-31T04:19:23.407Z,72.70
2022-07-31T04:21:50.668Z,72.10
2022-07-31T04:24:18.359Z,71.40
2022-07-31T04:27:07.170Z,70.30
2022-07-31T04:29:42.643Z,72.30
2022-07-31T04:32:09.500Z,72.90
2022-07-31T04:34:46.456Z,72.70
2022-07-31T04:37:13.860Z,72.70
2022-07-31T04:39:41.096Z,73.90
2022-07-31T04:42:11.267Z,73.40
2022-07-31T04:44:38.908Z,71.80
2022-07-31T04:47:07.779Z,69.90
2022-07-31T04:49:38.962Z,67.10
2022-07-31T04:52:07.411Z,67.90
2022-07-31T04:54:34.991Z,68.00
2022-07-31T04:57:03.095Z,68.20
2022-07-31T04:59:59.003Z,67.90
2022-07-31T05:02:17.127Z,67.30
2022-07-31T05:04:44.324Z,69.30
2022-07-31T05:07:11.380Z,69.10
2022-07-31T05:09:38.292Z,65.60
2022-07-31T05:12:08.239Z,66.70
2022-07-31T05:14:35.551Z,63.50
2022-07-31T05:17:02.449Z,61.30
2022-07-31T05:19:49.414Z,65.00
2022-07-31T05:22:28.951Z,66.40
2022-07-31T05:25:31.116Z,66.50
2022-07-31T05:27:58.754Z,65.40
2022-07-31T05:30:29.864Z,69.80
2022-07-31T05:32:58.491Z,69.90
2022-07-31T05:35:25.712Z,68.30
2022-07-31T05:37:52.754Z,68.10
2022-07-31T05:40:27.731Z,66.10
2022-07-31T05:43:27.818Z,63.40
2022-07-31T05:46:06.164Z,63.30
2022-07-31T05:48:33.924Z,63.10
2022-07-31T05:51:05.473Z,61.40
2022-07-31T05:53:32.698Z,61.20
2022-07-31T05:56:18.163Z,58.80
2022-07-31T05:58:49.509Z,57.40
2022-07-31T06:01:16.908Z,57.30
2022-07-31T06:03:51.929Z,56.70
2022-07-31T06:06:39.788Z,56.40
2022-07-31T06:09:06.627Z,56.60
2022-07-31T06:11:40.006Z,56.20
2022-07-31T06:14:07.204Z,55.80
2022-07-31T06:17:04.214Z,55.60
2022-07-31T06:19:32.206Z,54.30
2022-07-31T06:21:59.176Z,53.70
2022-07-31T06:24:26.612Z,54.40
2022-07-31T06:26:59.243Z,54.50
2022-07-31T06:29:41.353Z,54.60
2022-07-31T06:32:09.234Z,53.90
2022-07-31T06:34:36.202Z,53.30
2022-07-31T06:37:03.409Z,52.20
2022-07-31T06:39:55.161Z,52.10
2022-07-31T06:42:35.535Z,51.70
2022-07-31T06:45:05.753Z,51.60
2022-07-31T06:47:52.593Z,51.20
2022-07-31T06:50:33.948Z,50.90
2022-07-31T06:53:16.144Z,50.90
2022-07-31T06:55:44.768Z,50.80
2022-07-31T06:58:11.955Z,51.50
2022-07-31T07:00:38.785Z,51.30
2022-07-31T07:03:05.828Z,51.80
2022-07-31T07:05:32.727Z,51.50
2022-07-31T07:08:01.487Z,51.40
2022-07-31T07:10:30.152Z,51.90
2022-07-31T07:12:59.930Z,51.60
2022-07-31T07:15:30.321Z,52.30
2022-07-31T07:17:57.336Z,52.00
2022-07-31T07:20:51.608Z,51.60
2022-07-31T07:23:19.048Z,49.80
2022-07-31T07:25:53.985Z,50.40
2022-07-31T07:28:30.102Z,51.00
2022-07-31T07:30:59.992Z,50.60
2022-07-31T07:33:39.929Z,49.80
2022-07-31T07:36:22.262Z,49.40
2022-07-31T07:38:54.815Z,49.00
2022-07-31T07:41:26.957Z,48.30
2022-07-31T07:43:54.564Z,48.00
2022-07-31T07:46:25.360Z,47.80
2022-07-31T07:48:57.858Z,47.80
2022-07-31T07:52:10.089Z,48.30
2022-07-31T07:54:40.536Z,48.50
2022-07-31T07:57:26.056Z,48.80
2022-07-31T08:00:12.722Z,49.10
2022-07-31T08:03:46.383Z,49.30
2022-07-31T08:05:46.047Z,48.90
2022-07-31T08:08:13.038Z,48.60
2022-07-31T08:10:41.006Z,49.30
2022-07-31T08:13:29.039Z,48.50
2022-07-31T08:16:22.191Z,48.50
2022-07-31T08:18:53.001Z,48.00
2022-07-31T08:21:20.154Z,48.40
2022-07-31T08:23:47.494Z,48.00
2022-07-31T08:26:18.138Z,48.90
2022-07-31T08:28:50.069Z,49.40
2022-07-31T08:31:19.537Z,48.90
2022-07-31T08:34:00.859Z,48.10
2022-07-31T08:36:27.951Z,48.70
2022-07-31T08:38:54.903Z,48.20
2022-07-31T08:41:46.202Z,48.60
2022-07-31T08:44:15.131Z,48.60
2022-07-31T08:46:42.048Z,49.00
2022-07-31T08:49:12.833Z,49.30
2022-07-31T08:51:50.998Z,49.60
2022-07-31T08:54:42.223Z,50.10
2022-07-31T08:57:12.819Z,50.40
2022-07-31T08:59:41.857Z,50.70
2022-07-31T09:02:10.219Z,50.80
2022-07-31T09:04:47.318Z,50.60
2022-07-31T09:07:16.599Z,50.80
2022-07-31T09:09:51.081Z,50.90
2022-07-31T09:12:34.653Z,50.50
2022-07-31T09:15:04.685Z,51.70
2022-07-31T09:17:36.378Z,51.70
2022-07-31T09:20:05.685Z,50.10
2022-07-31T09:22:34.470Z,49.80
2022-07-31T09:25:13.191Z,49.90
2022-07-31T09:27:40.791Z,49.70
2022-07-31T09:30:09.204Z,49.60
2022-07-31T09:33:18.963Z,49.80
2022-07-31T09:36:12.887Z,49.30
2022-07-31T09:38:44.548Z,50.20
2022-07-31T09:42:00.208Z,49.50
2022-07-31T09:44:34.977Z,50.00
2022-07-31T09:47:02.154Z,50.10
2022-07-31T09:49:33.940Z,50.40
2022-07-31T09:52:01.662Z,50.80
2022-07-31T09:54:31.353Z,51.00
2022-07-31T09:56:58.884Z,50.00
2022-07-31T09:59:28.970Z,50.30
2022-07-31T10:01:56.551Z,49.70
2022-07-31T10:04:23.866Z,50.80
2022-07-31T10:06:52.574Z,50.50
2022-07-31T10:09:21.140Z,50.00
2022-07-31T10:12:19.704Z,49.80
2022-07-31T10:14:50.752Z,49.50
2022-07-31T10:17:23.902Z,48.90
2022-07-31T10:20:09.504Z,48.10
2022-07-31T10:23:16.660Z,48.30
2022-07-31T10:25:53.409Z,48.50
2022-07-31T10:28:22.298Z,48.20
2022-07-31T10:30:49.980Z,48.90
2022-07-31T10:33:42.548Z,48.10
2022-07-31T10:36:27.797Z,46.90
2022-07-31T10:39:38.839Z,47.60
2022-07-31T10:42:18.252Z,48.60
2022-07-31T10:44:51.035Z,47.90
2022-07-31T10:47:19.476Z,44.20
2022-07-31T10:50:07.520Z,44.30
2022-07-31T10:52:57.295Z,47.50
2022-07-31T10:55:35.308Z,47.70
2022-07-31T10:58:30.092Z,47.90
2022-07-31T11:01:09.545Z,47.00
2022-07-31T11:03:47.470Z,45.80
2022-07-31T11:06:41.250Z,44.40
2022-07-31T11:09:45.416Z,45.80
2022-07-31T11:13:08.907Z,46.00
2022-07-31T11:15:48.711Z,45.80
2022-07-31T11:18:34.708Z,45.10
2022-07-31T11:21:22.708Z,44.50
2022-07-31T11:23:57.596Z,44.50
2022-07-31T11:26:36.230Z,44.00
2022-07-31T11:29:59.337Z,43.80
2022-07-31T11:32:25.730Z,44.40
2022-07-31T11:34:57.275Z,44.20
2022-07-31T11:37:46.513Z,44.70
2022-07-31T11:40:15.811Z,43.10
2022-07-31T11:42:45.936Z,40.90
2022-07-31T11:45:17.104Z,40.10
2022-07-31T11:48:12.566Z,40.00
2022-07-31T11:50:41.016Z,40.30
2022-07-31T11:53:07.890Z,40.10
2022-07-31T11:55:44.227Z,40.90
2022-07-31T11:58:11.335Z,40.70
2022-07-31T12:00:38.475Z,40.80
2022-07-31T12:03:08.606Z,40.80
2022-07-31T12:05:47.449Z,42.20
2022-07-31T12:08:15.522Z,40.80
2022-07-31T12:10:42.951Z,38.20
2022-07-31T12:13:16.128Z,40.50
2022-07-31T12:16:04.905Z,39.10
2022-07-31T12:18:49.995Z,39.70
2022-07-31T12:21:18.382Z,39.60
2022-07-31T12:23:47.662Z,40.60
2022-07-31T12:26:27.952Z,41.50
2022-07-31T12:29:01.723Z,41.50
2022-07-31T12:31:30.799Z,40.90
2022-07-31T12:33:58.036Z,40.90
2022-07-31T12:36:24.866Z,41.40
2022-07-31T12:39:02.268Z,41.90
2022-07-31T12:41:30.495Z,39.80
2022-07-31T12:44:13.170Z,41.70
2022-07-31T12:46:40.431Z,42.60
2022-07-31T12:49:08.522Z,43.00
2022-07-31T12:51:45.254Z,42.50
2022-07-31T12:54:17.130Z,41.30
2022-07-31T12:56:45.271Z,39.80
2022-07-31T12:59:12.395Z,40.30
2022-07-31T13:01:39.807Z,40.10
2022-07-31T13:04:08.076Z,40.90
2022-07-31T13:06:45.663Z,41.70
2022-07-31T13:09:12.527Z,41.80
2022-07-31T13:11:46.023Z,40.50
2022-07-31T13:14:16.081Z,40.40
2022-07-31T13:16:43.103Z,40.40
2022-07-31T13:19:10.068Z,39.90
2022-07-31T13:21:48.488Z,40.10
2022-07-31T13:24:20.933Z,40.00
2022-07-31T13:26:50.276Z,40.40
2022-07-31T13:29:17.862Z,40.60
2022-07-31T13:31:45.082Z,40.10
2022-07-31T13:34:12.157Z,38.90
2022-07-31T13:36:39.973Z,39.60
2022-07-31T13:39:08.393Z,39.70
2022-07-31T13:41:35.947Z,40.30
2022-07-31T13:44:05.134Z,40.00
2022-07-31T13:46:32.041Z,40.20
2022-07-31T13:49:00.251Z,40.90
2022-07-31T13:51:29.497Z,40.10
2022-07-31T13:53:56.718Z,40.30
2022-07-31T13:56:39.423Z,40.10
2022-07-31T13:59:13.099Z,40.20
2022-07-31T14:02:04.204Z,40.00
2022-07-31T14:04:31.232Z,39.20
2022-07-31T14:07:04.418Z,39.10
2022-07-31T14:09:34.175Z,38.80
2022-07-31T14:12:04.323Z,36.90
2022-07-31T14:14:32.995Z,38.00
2022-07-31T14:17:00.011Z,37.40
2022-07-31T14:19:27.007Z,38.60
2022-07-31T14:21:56.647Z,37.30
2022-07-31T14:24:38.413Z,37.20
2022-07-31T14:27:05.252Z,37.30
2022-07-31T14:29:32.171Z,37.70
2022-07-31T14:32:03.376Z,37.80
2022-07-31T14:34:35.557Z,36.10
2022-07-31T14:37:03.296Z,37.20
2022-07-31T14:39:30.727Z,37.50
2022-07-31T14:41:57.625Z,37.90
2022-07-31T14:44:24.541Z,36.70
2022-07-31T14:46:56.085Z,36.90
2022-07-31T14:49:23.075Z,36.00
2022-07-31T14:51:50.094Z,35.40
2022-07-31T14:54:16.996Z,35.20
2022-07-31T14:57:11.872Z,34.60
2022-07-31T14:59:31.339Z,35.50
2022-07-31T15:01:58.917Z,34.90
2022-07-31T15:04:25.904Z,35.30
2022-07-31T15:07:07.778Z,34.70
2022-07-31T15:09:39.740Z,34.90
2022-07-31T15:12:07.076Z,35.70
2022-07-31T15:14:34.657Z,35.00
2022-07-31T15:17:01.715Z,35.90
2022-07-31T15:19:28.759Z,36.60
2022-07-31T15:22:10.406Z,36.80
2022-07-31T15:24:48.296Z,37.40
2022-07-31T15:27:15.546Z,37.80
2022-07-31T15:30:04.665Z,38.40
2022-07-31T15:32:29.999Z,38.30
2022-07-31T15:34:56.973Z,37.90
2022-07-31T15:37:23.916Z,38.30
2022-07-31T15:40:01.524Z,39.00
2022-07-31T15:42:33.960Z,39.40
2022-07-31T15:45:01.259Z,39.00
2022-07-31T15:47:28.188Z,39.20
2022-07-31T15:49:55.163Z,39.30
2022-07-31T15:52:22.057Z,39.00
2022-07-31T15:54:52.104Z,39.00
2022-07-31T15:57:23.722Z,39.00
2022-07-31T15:59:54.202Z,39.00
2022-07-31T16:02:22.409Z,38.00
2022-07-31T16:04:52.933Z,37.80
2022-07-31T16:08:30.114Z,37.90
2022-07-31T16:10:16.492Z,38.70
2022-07-31T16:12:47.936Z,39.60
2022-07-31T16:15:16.433Z,40.10
2022-07-31T16:17:44.067Z,39.50
2022-07-31T16:20:25.673Z,39.80
2022-07-31T16:23:00.876Z,39.30
2022-07-31T16:25:30.075Z,39.20
2022-07-31T16:27:59.272Z,39.40
2022-07-31T16:30:27.365Z,39.10
2022-07-31T16:32:54.973Z,38.90
2022-07-31T16:35:21.979Z,39.10
2022-07-31T16:37:52.112Z,39.10
2022-07-31T16:40:29.731Z,39.10
2022-07-31T16:43:50.053Z,39.40
2022-07-31T16:45:51.209Z,39.70
2022-07-31T16:48:18.485Z,39.50
2022-07-31T16:50:45.900Z,39.50
2022-07-31T16:54:14.211Z,39.60
2022-07-31T16:56:09.808Z,39.60
2022-07-31T16:58:36.679Z,39.50
2022-07-31T17:01:04.279Z,39.50
2022-07-31T17:04:00.292Z,39.00
2022-07-31T17:06:18.336Z,39.80
2022-07-31T17:09:15.156Z,40.10
2022-07-31T17:11:49.392Z,40.40
2022-07-31T17:14:18.223Z,40.20
2022-07-31T17:16:48.884Z,40.30
2022-07-31T17:19:41.465Z,40.00
2022-07-31T17:22:11.349Z,40.30
2022-07-31T17:24:39.469Z,40.50
2022-07-31T17:27:08.329Z,41.20
2022-07-31T17:29:37.103Z,40.80
2022-07-31T17:32:04.924Z,41.10
2022-07-31T17:34:31.958Z,41.30
2022-07-31T17:36:58.848Z,41.40
2022-07-31T17:39:30.458Z,41.50
2022-07-31T17:41:58.209Z,42.20
2022-07-31T17:44:25.231Z,42.00
2022-07-31T17:46:52.719Z,42.00
2022-07-31T17:49:20.444Z,41.80
2022-07-31T17:51:59.983Z,41.80
2022-07-31T17:54:31.516Z,41.90
2022-07-31T17:56:59.758Z,42.60
2022-07-31T17:59:27.703Z,42.40
2022-07-31T18:02:04.426Z,42.50
2022-07-31T18:04:33.751Z,42.50
2022-07-31T18:07:04.198Z,42.80
2022-07-31T18:09:31.371Z,43.10
2022-07-31T18:11:58.755Z,43.10
2022-07-31T18:14:26.128Z,43.00
2022-07-31T18:16:53.435Z,43.50
2022-07-31T18:19:21.843Z,43.50
2022-07-31T18:21:49.859Z,43.70
2022-07-31T18:24:16.779Z,45.20
2022-07-31T18:26:43.665Z,45.50
2022-07-31T18:29:10.592Z,46.00
2022-07-31T18:31:37.842Z,46.30
2022-07-31T18:34:05.376Z,47.00
2022-07-31T18:36:33.316Z,47.10
2022-07-31T18:39:00.299Z,47.50
2022-07-31T18:41:27.832Z,47.70
2022-07-31T18:43:55.137Z,48.60
2022-07-31T18:46:23.681Z,48.50
2022-07-31T18:48:55.495Z,49.40
2022-07-31T18:51:23.641Z,48.80
2022-07-31T18:53:50.996Z,49.30
2022-07-31T18:56:18.327Z,49.90
2022-07-31T18:58:45.216Z,50.50
2022-07-31T19:01:12.251Z,50.90
2022-07-31T19:03:39.278Z,51.10
2022-07-31T19:06:06.279Z,51.30
2022-07-31T19:08:33.387Z,51.20
2022-07-31T19:11:00.427Z,51.60
2022-07-31T19:13:27.296Z,52.00
2022-07-31T19:15:54.183Z,51.70
2022-07-31T19:18:26.394Z,51.60
2022-07-31T19:21:15.869Z,52.10
2022-07-31T19:23:43.420Z,51.80
2022-07-31T19:26:10.861Z,51.60
2022-07-31T19:28:39.621Z,51.60
2022-07-31T19:31:07.114Z,52.20
2022-07-31T19:33:34.131Z,53.00
2022-07-31T19:36:02.844Z,53.00
2022-07-31T19:38:31.641Z,53.20
2022-07-31T19:40:58.741Z,53.50
2022-07-31T19:43:25.765Z,54.10
2022-07-31T19:46:02.619Z,54.30
2022-07-31T19:48:44.180Z,54.30
2022-07-31T19:51:12.396Z,53.00
2022-07-31T19:53:39.660Z,52.10
2022-07-31T19:56:06.866Z,52.80
2022-07-31T19:58:37.390Z,53.20
2022-07-31T20:01:05.920Z,53.30
2022-07-31T20:03:33.032Z,53.30
2022-07-31T20:06:00.216Z,53.10
2022-07-31T20:08:29.631Z,53.10
2022-07-31T20:11:03.014Z,53.60
2022-07-31T20:13:30.474Z,52.90
2022-07-31T20:15:58.301Z,54.20
2022-07-31T20:18:29.030Z,54.00
2022-07-31T20:21:03.360Z,53.20
2022-07-31T20:23:31.199Z,53.30
2022-07-31T20:25:58.655Z,53.70
2022-07-31T20:28:26.439Z,54.30
2022-07-31T20:30:53.633Z,54.40
2022-07-31T20:33:20.586Z,55.50
2022-07-31T20:35:49.924Z,54.90
2022-07-31T20:38:26.127Z,54.20
2022-07-31T20:40:55.695Z,53.60
2022-07-31T20:43:28.548Z,54.80
2022-07-31T20:45:58.207Z,54.10
2022-07-31T20:48:32.713Z,54.10
2022-07-31T20:51:01.638Z,54.10
2022-07-31T20:53:29.737Z,53.80
2022-07-31T20:55:56.886Z,53.30
2022-07-31T20:58:24.998Z,53.60
2022-07-31T21:00:53.046Z,52.40
2022-07-31T21:03:20.520Z,53.90
2022-07-31T21:05:47.887Z,51.90
2022-07-31T21:08:15.165Z,52.10
2022-07-31T21:10:42.049Z,52.60
2022-07-31T21:13:09.251Z,53.50
2022-07-31T21:15:41.646Z,54.70
2022-07-31T21:18:16.484Z,54.90
2022-07-31T21:20:50.950Z,55.00
2022-07-31T21:23:24.686Z,54.30
2022-07-31T21:25:53.828Z,54.40
2022-07-31T21:28:21.771Z,53.40
2022-07-31T21:30:49.669Z,53.60
2022-07-31T21:33:18.074Z,53.90
2022-07-31T21:35:46.153Z,53.80
2022-07-31T21:38:16.779Z,53.60
2022-07-31T21:40:45.228Z,52.60
2022-07-31T21:43:14.686Z,52.10
2022-07-31T21:45:54.890Z,52.90
2022-07-31T21:48:26.488Z,51.40
2022-07-31T21:50:54.444Z,52.60
2022-07-31T21:53:21.740Z,53.40
2022-07-31T21:55:49.041Z,52.70
2022-07-31T21:58:16.112Z,53.00
2022-07-31T22:00:43.516Z,53.30
2022-07-31T22:03:10.730Z,55.40
2022-07-31T22:05:56.064Z,56.50
2022-07-31T22:08:23.055Z,56.80
2022-07-31T22:10:51.267Z,56.90
2022-07-31T22:13:18.927Z,56.40
2022-07-31T22:15:58.988Z,55.00
2022-07-31T22:18:32.540Z,56.40
2022-07-31T22:21:00.433Z,57.50
2022-07-31T22:23:28.546Z,57.30
2022-07-31T22:25:56.663Z,57.20
2022-07-31T22:28:24.819Z,57.30
2022-07-31T22:30:52.846Z,56.40
2022-07-31T22:33:20.505Z,57.00
2022-07-31T22:35:58.926Z,57.20
2022-07-31T22:38:28.856Z,56.50
2022-07-31T22:40:56.278Z,57.30
2022-07-31T22:44:11.251Z,57.10
2022-07-31T22:46:12.953Z,58.00
2022-07-31T22:48:40.683Z,58.10
2022-07-31T22:51:08.451Z,57.40
2022-07-31T22:53:36.183Z,57.90
2022-07-31T22:56:03.302Z,57.20
2022-07-31T22:58:30.499Z,56.00
2022-07-31T23:00:57.517Z,56.30
2022-07-31T23:03:24.400Z,57.00
2022-07-31T23:06:02.548Z,55.90
2022-07-31T23:08:38.374Z,58.00
2022-07-31T23:11:05.341Z,59.00
2022-07-31T23:13:32.196Z,57.50
2022-07-31T23:15:59.642Z,58.30
2022-07-31T23:18:26.697Z,58.80
2022-07-31T23:20:53.667Z,57.90
2022-07-31T23:23:20.517Z,56.70
2022-07-31T23:25:47.443Z,56.00
2022-07-31T23:28:14.300Z,57.00
2022-07-31T23:30:41.183Z,56.50
2022-07-31T23:33:08.095Z,57.20
2022-07-31T23:35:34.976Z,57.20
2022-07-31T23:38:01.971Z,56.80
2022-07-31T23:40:28.893Z,57.80
2022-07-31T23:42:55.783Z,57.30
2022-07-31T23:45:23.570Z,58.50
2022-07-31T23:47:50.867Z,59.00
2022-07-31T23:50:18.215Z,58.20
2022-07-31T23:52:45.452Z,58.70
2022-07-31T23:55:13.215Z,58.40
2022-07-31T23:57:40.758Z,58.40
